Time;durP1;ratioP1;P1;durP2;ratioP2;P2;SDS_P1;SDS_P2;PMS_P1;PMS_P2;Temp;Humidity;BMP_temperature;BMP_pressure;BME280_temperature;BME280_humidity;BME280_pressure;Samples;Min_cycle;Max_cycle;Signal;HPM_P1;HPM_P2
2022/05/09 00:02:10;;;;;;;4.90;1.70;;;7.30;99.90;;;;;;5053370;28;20500;-71
2022/05/09 00:04:37;;;;;;;8.57;2.42;;;7.20;99.90;;;;;;5053026;28;20147;-71
2022/05/09 00:07:03;;;;;;;7.25;2.78;;;7.00;99.90;;;;;;5050945;28;20115;-71
2022/05/09 00:09:29;;;;;;;8.25;2.80;;;6.90;99.90;;;;;;5052881;28;20041;-71
2022/05/09 00:11:54;;;;;;;8.10;2.50;;;6.80;99.90;;;;;;5069836;28;20037;-71
2022/05/09 00:14:20;;;;;;;10.38;3.08;;;6.80;99.90;;;;;;5052935;28;20094;-71
2022/05/09 00:16:46;;;;;;;9.02;3.05;;;6.80;99.90;;;;;;5051524;28;20489;-71
2022/05/09 00:19:17;;;;;;;8.02;2.90;;;6.90;99.90;;;;;;5053154;28;20047;-71
2022/05/09 00:21:44;;;;;;;8.93;2.95;;;6.90;99.90;;;;;;5052984;28;20041;-71
2022/05/09 00:24:14;;;;;;;8.35;2.90;;;6.90;99.90;;;;;;5052811;28;20227;-71
2022/05/09 00:26:41;;;;;;;11.40;2.80;;;6.90;99.90;;;;;;5051024;28;20037;-71
2022/05/09 00:29:09;;;;;;;11.15;3.40;;;6.90;99.90;;;;;;5052689;28;20083;-71
2022/05/09 00:31:34;;;;;;;9.80;3.55;;;6.90;99.90;;;;;;5035956;28;20116;-71
2022/05/09 00:34:01;;;;;;;9.45;3.20;;;6.80;99.90;;;;;;5052312;28;20076;-72
2022/05/09 00:36:26;;;;;;;8.90;3.63;;;6.80;99.90;;;;;;5050356;28;20065;-71
2022/05/09 00:38:52;;;;;;;10.50;3.35;;;6.70;99.90;;;;;;5052739;28;20041;-71
2022/05/09 00:41:34;;;;;;;9.32;3.83;;;6.70;99.90;;;;;;5052496;28;20041;-71
2022/05/09 00:44:13;;;;;;;8.30;3.17;;;6.60;99.90;;;;;;5052568;28;20170;-71
2022/05/09 00:46:41;;;;;;;8.85;3.25;;;6.70;99.90;;;;;;5050101;28;20072;-71
2022/05/09 00:49:46;;;;;;;11.85;3.83;;;6.80;99.90;;;;;;5051544;28;20048;-71
2022/05/09 00:52:18;;;;;;;10.23;4.07;;;6.60;99.90;;;;;;5048294;28;20060;-71
2022/05/09 00:54:49;;;;;;;10.52;4.80;;;6.60;99.90;;;;;;5034920;28;20378;-71
2022/05/09 00:57:23;;;;;;;10.23;3.55;;;6.50;99.90;;;;;;5051140;28;20041;-71
2022/05/09 00:59:50;;;;;;;10.00;3.60;;;6.40;99.90;;;;;;5050211;28;20044;-71
2022/05/09 01:02:17;;;;;;;8.95;3.40;;;6.50;99.90;;;;;;5050392;28;20402;-71
2022/05/09 01:04:54;;;;;;;8.02;3.33;;;6.50;99.90;;;;;;5050018;28;20037;-71
2022/05/09 01:07:22;;;;;;;11.00;3.40;;;6.60;99.90;;;;;;5051103;28;20068;-71
2022/05/09 01:09:47;;;;;;;11.00;3.20;;;6.50;99.90;;;;;;5051213;28;20404;-71
2022/05/09 01:12:17;;;;;;;9.80;3.67;;;6.40;99.90;;;;;;5051053;28;20033;-71
2022/05/09 01:14:44;;;;;;;9.88;4.07;;;6.40;99.90;;;;;;5049648;28;20167;-71
2022/05/09 01:17:09;;;;;;;12.50;3.78;;;6.30;99.90;;;;;;5062956;28;20445;-71
2022/05/09 01:19:38;;;;;;;11.05;3.80;;;6.10;99.90;;;;;;5034713;28;20139;-70
2022/05/09 01:22:34;;;;;;;11.10;3.47;;;6.10;99.90;;;;;;5033019;28;20056;-71
2022/05/09 01:25:03;;;;;;;11.80;3.53;;;6.20;99.90;;;;;;5062200;28;20116;-71
2022/05/09 01:27:33;;;;;;;8.88;3.22;;;6.20;99.90;;;;;;5050158;28;20033;-71
2022/05/09 01:30:21;;;;;;;11.70;3.90;;;6.30;99.90;;;;;;5069532;28;20392;-71
2022/05/09 01:32:54;;;;;;;9.90;3.97;;;6.30;99.90;;;;;;5044568;28;20135;-71
2022/05/09 01:35:31;;;;;;;11.77;3.95;;;6.20;99.90;;;;;;5055035;28;20055;-71
2022/05/09 01:38:30;;;;;;;10.32;3.72;;;6.00;99.90;;;;;;5054985;28;20048;-71
2022/05/09 01:40:56;;;;;;;12.45;4.05;;;5.80;99.90;;;;;;5061226;28;20059;-71
2022/05/09 01:43:34;;;;;;;13.07;4.72;;;5.70;99.90;;;;;;5049700;28;20037;-71
2022/05/09 01:46:02;;;;;;;11.05;4.03;;;5.60;99.90;;;;;;5033123;28;20547;-71
2022/05/09 01:51:12;;;;;;;10.10;3.88;;;5.50;99.90;;;;;;5062795;28;20037;-71
2022/05/09 01:53:37;;;;;;;9.98;3.60;;;5.50;99.90;;;;;;5046389;28;20037;-71
2022/05/09 01:56:03;;;;;;;13.73;4.07;;;5.40;99.90;;;;;;5048198;28;20060;-71
2022/05/09 01:58:29;;;;;;;10.75;3.75;;;5.40;99.90;;;;;;5034313;28;20386;-71
2022/05/09 02:00:54;;;;;;;11.15;3.65;;;5.50;99.90;;;;;;5048541;28;20427;-70
2022/05/09 02:03:20;;;;;;;10.27;3.75;;;5.50;99.90;;;;;;5047451;28;20127;-70
2022/05/09 02:05:46;;;;;;;10.88;3.90;;;5.50;99.90;;;;;;5033397;28;20037;-70
2022/05/09 02:08:12;;;;;;;13.82;4.22;;;5.50;99.90;;;;;;5053095;28;20044;-70
2022/05/09 02:10:38;;;;;;;9.05;3.60;;;5.50;99.90;;;;;;5054515;28;20036;-71
2022/05/09 02:13:03;;;;;;;11.00;3.80;;;5.60;99.90;;;;;;5051852;28;20493;-71
2022/05/09 02:15:31;;;;;;;10.45;3.83;;;5.50;99.90;;;;;;5054346;28;20041;-71
2022/05/09 02:17:57;;;;;;;10.77;3.67;;;5.50;99.90;;;;;;5053656;28;20049;-71
2022/05/09 02:20:23;;;;;;;14.75;4.60;;;5.50;99.90;;;;;;5058666;28;20041;-70
2022/05/09 02:22:49;;;;;;;10.27;3.10;;;5.50;99.90;;;;;;5065791;28;20394;-70
2022/05/09 02:25:29;;;;;;;5.68;2.72;;;5.70;99.90;;;;;;5065969;28;20044;-70
2022/05/09 02:27:56;;;;;;;11.25;3.78;;;5.90;99.90;;;;;;5064198;28;20037;-71
2022/05/09 02:30:22;;;;;;;10.18;4.03;;;5.90;99.90;;;;;;5052151;28;20032;-70
2022/05/09 02:32:48;;;;;;;8.95;3.80;;;5.90;99.90;;;;;;5057590;28;20043;-70
2022/05/09 02:35:14;;;;;;;9.05;3.70;;;5.90;99.90;;;;;;5037028;28;20060;-71
2022/05/09 02:37:39;;;;;;;7.45;2.80;;;5.80;99.90;;;;;;5071528;28;20050;-70
2022/05/09 02:40:06;;;;;;;9.43;3.42;;;5.60;99.90;;;;;;5049772;28;20032;-71
2022/05/09 02:42:31;;;;;;;8.15;3.15;;;5.50;99.90;;;;;;5074923;28;20499;-71
2022/05/09 02:44:57;;;;;;;9.57;3.00;;;5.40;99.90;;;;;;5074454;28;20079;-71
2022/05/09 02:47:25;;;;;;;9.75;3.38;;;5.30;99.90;;;;;;5074645;28;20039;-70
2022/05/09 02:49:50;;;;;;;10.85;3.63;;;5.30;99.90;;;;;;5074463;28;20511;-70
2022/05/09 02:52:16;;;;;;;9.75;3.60;;;5.20;99.90;;;;;;5070979;28;20033;-70
2022/05/09 02:54:41;;;;;;;8.90;3.05;;;5.30;99.90;;;;;;5054745;28;20052;-71
2022/05/09 02:57:07;;;;;;;8.05;3.30;;;5.40;99.90;;;;;;5054595;28;20041;-70
2022/05/09 02:59:34;;;;;;;7.90;2.90;;;5.40;99.90;;;;;;5054718;28;20037;-71
2022/05/09 03:02:01;;;;;;;6.50;2.67;;;5.50;99.90;;;;;;5037736;28;20044;-71
2022/05/09 03:04:39;;;;;;;8.25;3.13;;;5.50;99.90;;;;;;5054138;28;20045;-71
2022/05/09 03:07:14;;;;;;;10.85;3.35;;;5.50;99.90;;;;;;5037615;28;20048;-71
2022/05/09 03:09:42;;;;;;;9.38;2.83;;;5.40;99.90;;;;;;5054235;28;20033;-71
2022/05/09 03:12:09;;;;;;;9.25;3.30;;;5.40;99.90;;;;;;5037386;28;20033;-71
2022/05/09 03:14:35;;;;;;;10.07;3.63;;;5.40;99.90;;;;;;5053837;28;20397;-70
2022/05/09 03:17:02;;;;;;;8.68;3.30;;;5.40;99.90;;;;;;5054201;28;20089;-71
2022/05/09 03:19:28;;;;;;;7.95;3.42;;;5.30;99.90;;;;;;5054236;28;20397;-70
2022/05/09 03:21:54;;;;;;;11.23;3.90;;;5.30;99.90;;;;;;5053947;28;20053;-70
2022/05/09 03:24:19;;;;;;;10.77;3.67;;;5.20;99.90;;;;;;5053852;28;20033;-71
2022/05/09 03:26:49;;;;;;;10.48;3.60;;;5.20;99.90;;;;;;5053895;28;20509;-71
2022/05/09 03:29:18;;;;;;;8.77;3.85;;;5.20;99.90;;;;;;5037102;28;20120;-70
2022/05/09 03:31:45;;;;;;;10.30;3.55;;;5.20;99.90;;;;;;5036722;28;20433;-70
2022/05/09 03:34:11;;;;;;;9.40;4.32;;;5.30;99.90;;;;;;5051922;28;20456;-70
2022/05/09 03:36:36;;;;;;;12.40;4.22;;;5.40;99.90;;;;;;5052547;28;20068;-71
2022/05/09 03:39:02;;;;;;;7.90;3.25;;;5.30;99.90;;;;;;5051819;28;20059;-70
2022/05/09 03:41:28;;;;;;;7.45;2.72;;;5.20;99.90;;;;;;5054900;28;20114;-70
2022/05/09 03:43:53;;;;;;;10.95;4.03;;;5.30;99.90;;;;;;5035836;28;20084;-70
2022/05/09 03:46:19;;;;;;;10.95;3.60;;;5.20;99.90;;;;;;5053325;28;20047;-70
2022/05/09 03:48:44;;;;;;;10.85;3.90;;;5.20;99.90;;;;;;5053555;28;20043;-70
2022/05/09 03:51:10;;;;;;;11.75;4.07;;;5.30;99.90;;;;;;5035839;28;20068;-70
2022/05/09 03:53:36;;;;;;;12.05;4.25;;;5.10;99.90;;;;;;5033231;28;20071;-70
2022/05/09 03:56:02;;;;;;;12.15;4.13;;;5.00;99.90;;;;;;5053498;28;20144;-70
2022/05/09 03:58:28;;;;;;;10.10;3.78;;;4.90;99.90;;;;;;5052142;28;20504;-70
2022/05/09 04:00:54;;;;;;;11.57;3.80;;;4.80;99.90;;;;;;5069012;28;20041;-70
2022/05/09 04:03:20;;;;;;;9.85;3.85;;;4.70;99.90;;;;;;5051141;28;20029;-70
2022/05/09 04:05:45;;;;;;;7.82;3.58;;;4.70;99.90;;;;;;5052235;28;20036;-70
2022/05/09 04:08:17;;;;;;;8.85;3.50;;;4.60;99.90;;;;;;5053002;28;20063;-71
2022/05/09 04:10:44;;;;;;;10.75;3.50;;;4.60;99.90;;;;;;5051853;28;20554;-70
2022/05/09 04:13:10;;;;;;;9.55;3.90;;;4.70;99.90;;;;;;5053124;28;20175;-71
2022/05/09 04:18:22;;;;;;;8.90;3.72;;;4.90;99.90;;;;;;5051657;28;20048;-70
2022/05/09 04:20:50;;;;;;;9.60;3.72;;;5.00;99.90;;;;;;5049745;28;20094;-70
2022/05/09 04:23:16;;;;;;;9.07;3.15;;;5.10;99.90;;;;;;5050690;28;20037;-70
2022/05/09 04:25:43;;;;;;;8.20;2.47;;;5.20;99.90;;;;;;5050069;28;20056;-70
2022/05/09 04:28:09;;;;;;;5.78;2.60;;;5.30;99.90;;;;;;5051899;28;20052;-70
2022/05/09 04:30:36;;;;;;;6.65;2.92;;;5.30;99.90;;;;;;5059346;28;20045;-70
2022/05/09 04:33:04;;;;;;;7.22;3.17;;;5.30;99.90;;;;;;5050858;28;20032;-70
2022/05/09 04:35:32;;;;;;;10.25;3.05;;;5.30;99.90;;;;;;5034330;28;20073;-70
2022/05/09 04:37:58;;;;;;;5.60;2.92;;;5.30;99.90;;;;;;5051645;28;20178;-71
2022/05/09 04:40:31;;;;;;;8.65;3.20;;;5.30;99.90;;;;;;5050620;28;20397;-70
2022/05/09 04:42:57;;;;;;;8.68;3.42;;;5.20;99.90;;;;;;5035018;28;20128;-70
2022/05/09 04:45:24;;;;;;;8.23;3.40;;;5.20;99.90;;;;;;5034629;28;20048;-70
2022/05/09 04:47:51;;;;;;;8.55;3.45;;;5.30;99.90;;;;;;5051535;28;20171;-70
2022/05/09 04:50:18;;;;;;;7.63;3.38;;;5.40;99.90;;;;;;5050725;28;20374;-70
2022/05/09 04:52:44;;;;;;;7.90;3.45;;;5.40;99.90;;;;;;5035000;28;20037;-71
2022/05/09 04:55:10;;;;;;;9.52;3.97;;;5.50;99.90;;;;;;5050279;28;20061;-70
2022/05/09 04:57:36;;;;;;;12.10;3.92;;;5.40;99.90;;;;;;5050949;28;20072;-71
2022/05/09 05:00:04;;;;;;;10.40;3.67;;;5.40;99.90;;;;;;5034682;28;20079;-70
2022/05/09 05:02:29;;;;;;;8.43;4.10;;;5.40;99.90;;;;;;5051535;28;20098;-70
2022/05/09 05:04:55;;;;;;;13.45;5.25;;;5.50;99.90;;;;;;5050583;28;20037;-71
2022/05/09 05:07:20;;;;;;;14.02;5.70;;;5.50;99.90;;;;;;5034418;28;20029;-71
2022/05/09 05:09:46;;;;;;;16.73;6.05;;;5.50;99.90;;;;;;5051559;28;20037;-70
2022/05/09 05:12:11;;;;;;;13.52;5.40;;;5.60;99.90;;;;;;5051066;28;20119;-70
2022/05/09 05:14:37;;;;;;;14.93;6.50;;;5.70;99.90;;;;;;5051234;28;20432;-70
2022/05/09 05:17:03;;;;;;;15.10;5.90;;;5.70;99.90;;;;;;5050190;28;20378;-70
2022/05/09 05:19:35;;;;;;;14.38;5.82;;;5.80;99.90;;;;;;5050064;28;20028;-70
2022/05/09 05:22:02;;;;;;;14.60;6.07;;;5.80;99.90;;;;;;5050819;28;20080;-70
2022/05/09 05:24:29;;;;;;;15.52;5.80;;;5.80;99.90;;;;;;5050796;28;20037;-70
2022/05/09 05:26:56;;;;;;;17.52;6.28;;;6.00;99.90;;;;;;5049164;28;20033;-70
2022/05/09 05:29:22;;;;;;;16.65;6.25;;;6.00;99.90;;;;;;5049639;28;20037;-70
2022/05/09 05:31:48;;;;;;;15.70;6.57;;;6.10;99.90;;;;;;5050563;28;20044;-70
2022/05/09 05:34:14;;;;;;;17.88;6.93;;;6.20;99.90;;;;;;5068155;28;20694;-70
2022/05/09 05:36:40;;;;;;;16.83;6.85;;;6.30;99.90;;;;;;5049843;28;20115;-70
2022/05/09 05:39:07;;;;;;;20.00;7.32;;;6.40;99.90;;;;;;5050799;28;20489;-70
2022/05/09 05:41:33;;;;;;;18.95;6.57;;;6.50;99.90;;;;;;5050464;28;20052;-70
2022/05/09 05:43:59;;;;;;;13.50;5.53;;;6.60;99.90;;;;;;5038326;28;20508;-70
2022/05/09 05:46:25;;;;;;;14.90;6.35;;;6.80;99.90;;;;;;5054364;28;20044;-70
2022/05/09 05:48:50;;;;;;;18.88;7.72;;;6.90;99.90;;;;;;5055643;28;20041;-69
2022/05/09 05:51:18;;;;;;;22.45;6.88;;;7.00;99.90;;;;;;5053809;28;20420;-70
2022/05/09 05:53:45;;;;;;;16.98;6.93;;;7.10;99.90;;;;;;5055043;28;20049;-70
2022/05/09 05:56:11;;;;;;;16.50;6.53;;;7.20;99.90;;;;;;5053697;28;20037;-70
2022/05/09 05:58:37;;;;;;;13.70;5.88;;;7.30;99.90;;;;;;5054395;28;20036;-70
2022/05/09 06:01:03;;;;;;;15.45;6.68;;;7.50;99.90;;;;;;5053704;28;20037;-70
2022/05/09 06:03:28;;;;;;;20.02;7.40;;;7.70;99.90;;;;;;5058646;28;20120;-70
2022/05/09 06:05:54;;;;;;;18.00;7.07;;;7.90;99.90;;;;;;5036930;28;20048;-70
2022/05/09 06:08:19;;;;;;;24.73;7.88;;;8.00;99.90;;;;;;5037939;28;20068;-70
2022/05/09 06:10:46;;;;;;;16.98;6.63;;;8.30;99.90;;;;;;5054489;28;20029;-70
2022/05/09 06:13:11;;;;;;;16.02;6.97;;;8.40;99.90;;;;;;5054306;28;20033;-70
2022/05/09 06:15:37;;;;;;;19.23;7.05;;;8.60;99.90;;;;;;5070934;28;20451;-70
2022/05/09 06:18:08;;;;;;;18.90;7.32;;;8.80;99.90;;;;;;5053621;28;20409;-70
2022/05/09 06:20:36;;;;;;;17.00;6.47;;;8.90;99.90;;;;;;5036876;28;20072;-70
2022/05/09 06:23:03;;;;;;;18.02;6.13;;;9.00;99.90;;;;;;5038063;28;20405;-69
2022/05/09 06:25:31;;;;;;;11.98;5.03;;;9.30;99.90;;;;;;5030937;28;20429;-70
2022/05/09 06:27:58;;;;;;;16.75;5.68;;;9.60;99.90;;;;;;5035084;28;20041;-69
2022/05/09 06:30:26;;;;;;;14.82;5.88;;;9.80;99.90;;;;;;5033309;28;20067;-69
2022/05/09 06:32:51;;;;;;;14.80;5.63;;;9.90;99.90;;;;;;5053939;28;20032;-70
2022/05/09 06:35:26;;;;;;;14.02;5.57;;;10.00;99.90;;;;;;5056973;28;20049;-70
2022/05/09 06:37:59;;;;;;;17.42;5.57;;;10.10;99.90;;;;;;5052635;28;20041;-70
2022/05/09 06:40:27;;;;;;;13.80;5.45;;;10.30;99.90;;;;;;5065106;28;20041;-70
2022/05/09 06:42:54;;;;;;;16.77;6.10;;;10.40;99.90;;;;;;5049851;28;20041;-70
2022/05/09 06:45:21;;;;;;;12.82;5.15;;;10.50;99.90;;;;;;5035620;28;20040;-70
2022/05/09 06:47:52;;;;;;;17.55;5.57;;;10.70;99.90;;;;;;5047186;28;20032;-69
2022/05/09 06:50:20;;;;;;;16.67;5.50;;;10.80;99.90;;;;;;5069543;28;20037;-70
2022/05/09 06:52:46;;;;;;;15.85;5.75;;;10.90;99.90;;;;;;5033300;28;20046;-70
2022/05/09 06:55:12;;;;;;;22.45;5.90;;;11.00;99.90;;;;;;5060665;28;20044;-70
2022/05/09 06:57:43;;;;;;;13.85;5.65;;;11.10;99.90;;;;;;5031719;28;20049;-70
2022/05/09 07:00:13;;;;;;;19.05;6.10;;;11.20;99.90;;;;;;5043063;28;20041;-69
2022/05/09 07:02:38;;;;;;;14.18;5.47;;;11.30;99.90;;;;;;5039497;28;20037;-70
2022/05/09 07:05:06;;;;;;;13.88;5.80;;;11.40;99.90;;;;;;5049426;28;20417;-70
2022/05/09 07:07:32;;;;;;;17.95;6.22;;;11.50;99.90;;;;;;5051731;28;20375;-70
2022/05/09 07:09:57;;;;;;;15.07;5.43;;;11.60;99.90;;;;;;5052843;28;20526;-70
2022/05/09 07:12:23;;;;;;;14.73;5.55;;;11.90;99.90;;;;;;5049972;28;20138;-70
2022/05/09 07:14:49;;;;;;;13.63;5.20;;;11.90;99.90;;;;;;5049055;28;20037;-69
2022/05/09 07:17:14;;;;;;;15.32;4.93;;;11.90;99.90;;;;;;5051394;28;20386;-76
2022/05/09 07:19:40;;;;;;;16.88;5.80;;;12.20;99.90;;;;;;5052178;28;20416;-71
2022/05/09 07:22:05;;;;;;;13.85;5.97;;;12.10;99.90;;;;;;5035891;28;20140;-72
2022/05/09 07:24:31;;;;;;;17.00;5.00;;;12.10;99.90;;;;;;5036094;28;20033;-72
2022/05/09 07:26:56;;;;;;;16.33;5.93;;;12.10;99.90;;;;;;5037290;28;20525;-72
2022/05/09 07:29:22;;;;;;;13.32;5.30;;;12.20;99.90;;;;;;5052422;28;20436;-72
2022/05/09 07:31:47;;;;;;;16.40;5.28;;;12.20;99.90;;;;;;5047040;28;20505;-75
2022/05/09 07:34:13;;;;;;;12.60;5.40;;;12.30;99.90;;;;;;5004770;28;1028991;-75
2022/05/09 07:36:39;;;;;;;12.85;5.43;;;12.40;99.90;;;;;;5053255;28;20131;-70
2022/05/09 07:39:05;;;;;;;12.90;6.05;;;12.60;99.90;;;;;;5037024;28;20123;-69
2022/05/09 07:41:31;;;;;;;15.48;5.45;;;12.80;99.90;;;;;;5051373;28;20094;-69
2022/05/09 07:43:57;;;;;;;13.90;4.97;;;12.90;99.90;;;;;;5053344;28;20049;-70
2022/05/09 07:46:23;;;;;;;19.10;5.47;;;12.90;99.90;;;;;;5052513;28;20109;-70
2022/05/09 07:48:49;;;;;;;15.38;5.35;;;12.90;99.90;;;;;;5051468;28;20033;-70
2022/05/09 07:51:16;;;;;;;14.15;5.05;;;13.00;99.90;;;;;;5054047;28;20055;-70
2022/05/09 07:53:41;;;;;;;14.75;4.50;;;13.10;99.90;;;;;;5036417;28;20037;-70
2022/05/09 07:56:07;;;;;;;13.77;5.35;;;13.30;99.90;;;;;;5069346;28;20546;-70
2022/05/09 07:58:34;;;;;;;12.50;4.93;;;13.30;99.90;;;;;;5036101;28;20037;-69
2022/05/09 08:01:01;;;;;;;11.63;4.63;;;13.50;99.90;;;;;;5052911;28;20033;-70
2022/05/09 08:03:29;;;;;;;13.48;5.32;;;13.50;99.90;;;;;;5036610;28;20124;-70
2022/05/09 08:05:56;;;;;;;14.10;5.10;;;13.60;99.90;;;;;;5045868;28;20048;-69
2022/05/09 08:08:22;;;;;;;13.23;4.80;;;13.80;99.90;;;;;;5052192;28;20033;-70
2022/05/09 08:10:48;;;;;;;13.45;5.28;;;13.80;99.90;;;;;;5036254;28;20124;-70
2022/05/09 08:13:16;;;;;;;12.98;5.05;;;13.90;99.90;;;;;;5035947;28;20029;-70
2022/05/09 08:15:44;;;;;;;12.07;4.72;;;14.10;99.90;;;;;;5035585;28;20497;-69
2022/05/09 08:18:10;;;;;;;14.18;4.50;;;14.20;99.90;;;;;;5050260;28;20404;-70
2022/05/09 08:20:38;;;;;;;13.55;4.72;;;14.30;99.90;;;;;;5031966;28;20102;-70
2022/05/09 08:23:10;;;;;;;14.60;5.38;;;14.40;99.90;;;;;;5045651;28;20429;-71
2022/05/09 08:25:38;;;;;;;14.80;5.18;;;14.40;99.90;;;;;;5032677;28;20099;-70
2022/05/09 08:28:05;;;;;;;14.13;5.35;;;14.50;99.90;;;;;;5041781;28;20043;-70
2022/05/09 08:30:34;;;;;;;12.52;4.75;;;14.70;99.90;;;;;;5065497;28;20366;-70
2022/05/09 08:33:06;;;;;;;14.63;4.80;;;14.80;99.90;;;;;;5050679;28;20397;-70
2022/05/09 08:35:33;;;;;;;11.30;3.95;;;15.00;99.90;;;;;;5034947;28;20057;-70
2022/05/09 08:37:58;;;;;;;15.68;4.60;;;15.10;99.90;;;;;;5035147;28;20045;-71
2022/05/09 08:41:08;;;;;;;15.00;4.82;;;15.20;99.90;;;;;;5035782;28;20477;-70
2022/05/09 08:43:55;;;;;;;11.40;4.22;;;15.30;99.90;;;;;;5022797;28;20049;-70
2022/05/09 08:46:32;;;;;;;12.63;4.07;;;15.40;99.90;;;;;;5046802;28;20125;-70
2022/05/09 08:49:25;;;;;;;12.38;3.72;;;15.60;99.90;;;;;;5034568;28;20049;-70
2022/05/09 08:52:09;;;;;;;16.55;4.15;;;15.70;99.90;;;;;;5052357;28;20040;-70
2022/05/09 08:54:36;;;;;;;13.18;4.22;;;15.80;99.90;;;;;;5043751;28;20036;-70
2022/05/09 08:57:07;;;;;;;10.82;4.03;;;15.90;99.90;;;;;;5038542;28;20374;-70
2022/05/09 08:59:38;;;;;;;12.82;4.57;;;16.00;98.50;;;;;;5031466;28;20497;-70
2022/05/09 09:02:29;;;;;;;12.50;4.15;;;16.20;99.90;;;;;;5033393;28;20375;-70
2022/05/09 09:04:56;;;;;;;12.30;3.70;;;16.30;99.90;;;;;;5050520;28;20378;-70
2022/05/09 09:07:40;;;;;;;13.32;3.40;;;16.40;99.70;;;;;;5035294;28;20066;-71
2022/05/09 09:10:26;;;;;;;11.52;2.97;;;16.50;97.90;;;;;;5051458;28;20037;-70
2022/05/09 09:13:01;;;;;;;12.07;3.53;;;16.60;95.80;;;;;;5033999;28;20072;-70
2022/05/09 09:15:48;;;;;;;11.45;3.17;;;16.70;92.00;;;;;;5048472;28;20500;-70
2022/05/09 09:18:30;;;;;;;10.43;4.00;;;16.90;97.70;;;;;;5049511;28;20052;-70
2022/05/09 09:21:21;;;;;;;14.18;4.18;;;17.10;97.10;;;;;;5051404;28;20040;-70
2022/05/09 09:24:02;;;;;;;14.60;3.72;;;17.10;90.30;;;;;;5050317;28;20493;-70
2022/05/09 09:26:40;;;;;;;10.90;3.28;;;17.10;93.90;;;;;;5050249;28;20041;-70
2022/05/09 09:29:30;;;;;;;11.52;3.30;;;17.20;95.70;;;;;;5031209;28;20032;-70
2022/05/09 09:32:03;;;;;;;13.27;3.10;;;17.40;95.30;;;;;;5051426;28;20437;-70
2022/05/09 09:34:53;;;;;;;11.68;2.67;;;17.50;96.30;;;;;;5051069;28;20057;-71
2022/05/09 09:37:50;;;;;;;11.48;2.92;;;17.70;87.90;;;;;;5033576;28;20037;-70
2022/05/09 09:40:16;;;;;;;9.82;2.15;;;17.70;71.60;;;;;;5050440;28;20037;-70
2022/05/09 09:42:42;;;;;;;11.90;2.65;;;17.70;68.60;;;;;;5051459;28;20431;-70
2022/05/09 09:45:32;;;;;;;9.80;2.60;;;17.80;62.80;;;;;;5051136;28;20090;-70
2022/05/09 09:48:07;;;;;;;9.05;2.72;;;17.80;55.10;;;;;;5029626;28;20037;-70
2022/05/09 09:50:33;;;;;;;10.80;3.00;;;17.60;61.10;;;;;;5046945;28;20037;-70
2022/05/09 09:53:01;;;;;;;14.73;2.70;;;17.80;67.00;;;;;;5051369;28;20508;-70
2022/05/09 09:55:33;;;;;;;10.13;2.88;;;17.90;67.30;;;;;;5050798;28;20041;-70
2022/05/09 09:58:22;;;;;;;9.43;2.55;;;17.80;72.90;;;;;;5056304;28;20048;-71
2022/05/09 10:01:03;;;;;;;10.93;2.95;;;17.90;72.10;;;;;;5054427;28;20080;-70
2022/05/09 10:03:30;;;;;;;10.52;2.60;;;17.90;73.60;;;;;;5032603;28;20052;-70
2022/05/09 10:05:56;;;;;;;12.25;3.25;;;18.10;70.00;;;;;;5049522;28;20123;-70
2022/05/09 10:08:38;;;;;;;10.65;3.50;;;18.20;75.10;;;;;;5034912;28;20140;-70
2022/05/09 10:11:06;;;;;;;8.68;3.60;;;18.40;59.90;;;;;;5051781;28;20060;-70
2022/05/09 10:13:43;;;;;;;11.90;3.50;;;18.40;68.90;;;;;;5034059;28;20039;-71
2022/05/09 10:16:22;;;;;;;11.10;3.00;;;18.50;70.00;;;;;;5015006;28;20050;-71
2022/05/09 10:18:50;;;;;;;9.13;2.88;;;18.40;72.80;;;;;;5033285;28;20142;-71
2022/05/09 10:27:21;;;;;;;8.13;2.30;;;18.60;70.80;;;;;;5067616;28;20132;-70
2022/05/09 10:29:48;;;;;;;12.32;3.42;;;18.70;72.60;;;;;;5058870;28;20068;-70
2022/05/09 10:32:36;;;;;;;11.23;3.03;;;18.80;66.00;;;;;;5058081;28;20460;-71
2022/05/09 10:35:05;;;;;;;11.43;2.83;;;18.80;69.30;;;;;;5067847;28;20052;-71
2022/05/09 10:37:48;;;;;;;10.68;2.75;;;18.90;62.60;;;;;;5034156;28;20179;-71
2022/05/09 10:40:13;;;;;;;9.18;2.75;;;19.00;71.60;;;;;;5052813;28;20045;-71
2022/05/09 10:42:46;;;;;;;11.52;2.78;;;19.20;60.00;;;;;;5051668;28;20041;-71
2022/05/09 10:45:18;;;;;;;11.05;2.50;;;19.20;62.30;;;;;;5036900;28;20048;-71
2022/05/09 10:47:58;;;;;;;8.27;2.30;;;19.20;65.00;;;;;;5054151;28;20098;-71
2022/05/09 10:50:31;;;;;;;7.22;2.20;;;19.20;64.70;;;;;;5053126;28;20389;-71
2022/05/09 10:53:27;;;;;;;8.32;2.28;;;19.30;63.30;;;;;;5054481;28;20041;-71
2022/05/09 10:56:03;;;;;;;8.80;2.65;;;19.40;61.70;;;;;;5054338;28;20389;-71
2022/05/09 10:58:42;;;;;;;10.35;2.80;;;19.40;61.80;;;;;;5053144;28;20488;-71
2022/05/09 11:01:26;;;;;;;8.07;2.58;;;19.50;58.00;;;;;;5036987;28;20052;-71
2022/05/09 11:03:56;;;;;;;8.32;2.55;;;19.40;62.60;;;;;;5053792;28;20044;-71
2022/05/09 11:06:40;;;;;;;10.02;2.13;;;19.40;65.40;;;;;;5053778;28;20037;-71
2022/05/09 11:09:33;;;;;;;8.85;2.35;;;19.60;62.20;;;;;;5050895;28;20040;-72
2022/05/09 11:12:51;;;;;;;8.85;2.45;;;19.60;62.20;;;;;;5036572;28;20045;-71
2022/05/09 11:15:37;;;;;;;9.02;2.72;;;19.70;62.00;;;;;;5019186;28;20064;-71
2022/05/09 11:18:16;;;;;;;9.63;2.60;;;19.70;61.20;;;;;;5052092;28;20053;-72
2022/05/09 11:21:19;;;;;;;8.95;2.42;;;19.60;63.40;;;;;;5053501;28;20052;-71
2022/05/09 11:24:10;;;;;;;8.13;2.47;;;19.70;66.90;;;;;;5036046;28;20493;-71
2022/05/09 11:26:49;;;;;;;9.52;2.40;;;19.70;63.60;;;;;;5051677;28;20044;-71
2022/05/09 11:29:35;;;;;;;8.90;2.28;;;19.70;62.30;;;;;;5050666;28;20082;-71
2022/05/09 11:32:21;;;;;;;9.50;2.53;;;19.90;62.70;;;;;;5034339;28;20033;-71
2022/05/09 11:35:15;;;;;;;9.10;3.35;;;20.00;57.60;;;;;;5021658;28;20052;-72
2022/05/09 11:37:53;;;;;;;12.18;2.88;;;19.90;58.40;;;;;;5053743;28;20127;-71
2022/05/09 11:40:26;;;;;;;9.80;2.63;;;19.80;55.50;;;;;;5052426;28;20044;-71
2022/05/09 11:43:28;;;;;;;12.60;2.88;;;19.90;63.70;;;;;;5052501;28;20128;-71
2022/05/09 11:46:31;;;;;;;9.88;2.40;;;19.90;61.30;;;;;;5050956;28;20052;-72
2022/05/09 11:49:17;;;;;;;12.13;2.63;;;19.90;62.30;;;;;;5037008;28;20135;-71
2022/05/09 11:51:55;;;;;;;10.13;2.58;;;19.90;64.70;;;;;;5028062;28;20044;-72
2022/05/09 11:54:27;;;;;;;8.50;2.30;;;20.00;64.00;;;;;;5052647;28;20045;-72
2022/05/09 11:56:56;;;;;;;6.78;2.08;;;20.20;66.10;;;;;;5036112;28;20075;-71
2022/05/09 11:59:31;;;;;;;9.68;2.53;;;20.20;63.30;;;;;;5053563;28;20127;-72
2022/05/09 12:02:13;;;;;;;8.38;2.20;;;20.20;64.80;;;;;;5052024;28;20041;-72
2022/05/09 12:04:42;;;;;;;8.40;2.47;;;20.10;67.30;;;;;;5051338;28;20044;-72
2022/05/09 12:07:26;;;;;;;9.30;2.63;;;20.20;65.40;;;;;;5050731;28;20033;-72
2022/05/09 12:09:58;;;;;;;9.60;2.50;;;20.20;64.80;;;;;;5048350;28;20036;-72
2022/05/09 12:12:41;;;;;;;7.78;2.00;;;20.40;62.70;;;;;;5037837;28;20444;-71
2022/05/09 12:15:26;;;;;;;7.82;2.22;;;20.40;60.50;;;;;;5035483;28;20053;-71
2022/05/09 12:17:58;;;;;;;8.65;2.22;;;20.20;63.30;;;;;;5047833;28;20048;-72
2022/05/09 12:20:29;;;;;;;7.88;2.33;;;20.30;61.80;;;;;;5034991;28;20052;-72
2022/05/09 12:23:01;;;;;;;9.20;2.28;;;20.40;60.80;;;;;;5035785;28;20463;-71
2022/05/09 12:25:36;;;;;;;10.00;2.65;;;20.40;64.90;;;;;;5051563;28;20049;-72
2022/05/09 12:28:04;;;;;;;8.15;2.13;;;20.40;64.40;;;;;;5049622;28;20052;-72
2022/05/09 12:30:41;;;;;;;6.93;2.42;;;20.50;67.30;;;;;;5032745;28;20043;-71
2022/05/09 12:33:25;;;;;;;8.45;2.20;;;20.50;65.20;;;;;;5059947;28;20456;-72
2022/05/09 12:35:54;;;;;;;8.10;2.30;;;20.50;65.70;;;;;;5039519;28;20064;-72
2022/05/09 12:38:26;;;;;;;8.32;2.63;;;20.60;64.80;;;;;;5034604;28;20044;-72
2022/05/09 12:41:16;;;;;;;9.10;2.53;;;20.60;65.60;;;;;;5033880;28;20048;-72
2022/05/09 12:43:55;;;;;;;8.30;2.05;;;20.60;65.00;;;;;;5031776;28;20124;-72
2022/05/09 12:46:25;;;;;;;8.93;2.97;;;20.50;66.00;;;;;;5051109;28;20037;-72
2022/05/09 12:48:52;;;;;;;6.78;2.60;;;20.60;65.10;;;;;;5034461;28;20489;-72
2022/05/09 12:51:19;;;;;;;8.55;2.78;;;20.60;67.20;;;;;;5031312;28;20049;-72
2022/05/09 12:53:45;;;;;;;8.20;2.88;;;20.70;65.60;;;;;;5032512;28;20518;-72
2022/05/09 12:56:18;;;;;;;8.68;3.05;;;20.60;67.10;;;;;;5031810;28;20505;-72
2022/05/09 12:58:48;;;;;;;9.85;3.20;;;20.70;66.70;;;;;;5049018;28;20052;-72
2022/05/09 13:01:27;;;;;;;8.27;2.50;;;20.70;72.80;;;;;;5052215;28;20037;-72
2022/05/09 13:03:58;;;;;;;10.38;2.90;;;20.70;67.60;;;;;;5051995;28;20033;-72
2022/05/09 13:06:27;;;;;;;9.48;2.80;;;20.80;66.90;;;;;;5034989;28;20045;-72
2022/05/09 13:08:54;;;;;;;10.38;2.40;;;20.80;66.80;;;;;;5049209;28;20090;-72
2022/05/09 13:11:27;;;;;;;10.00;3.03;;;20.80;70.20;;;;;;5051235;28;20033;-72
2022/05/09 13:14:07;;;;;;;9.27;3.05;;;20.80;67.30;;;;;;5050383;28;20037;-72
2022/05/09 13:16:42;;;;;;;8.30;2.50;;;20.90;65.40;;;;;;5034753;28;20036;-72
2022/05/09 13:19:14;;;;;;;8.25;2.15;;;20.80;67.50;;;;;;5050695;28;20439;-72